Pagrindinis puslapis
METAR-TAF:

METAR-TAF

Oro uostai :

Čitagongas, Bangladešas

platuma: 22-16N, ilguma: 091-49E, Aukštis: 4 m

Dabartinis oras

Ataskaita buvo paskelbta 5 valandos ir 46 minutes, ne 12:00 UTC
Ramus vėjas
Temperatūra 31°C
Drėgmė 46%
Slėgis 1008 hPa
Matomumas: 4500 m
Išsisklaidę debesys ne aukštis 1800 ft
migla

METAR: VGEG 311200Z 00000KT 4500 HZ SCT018 31/18 Q1008 NOSIG

Laikas: 23:46 (17:46 UTC)

Prognozė

Ataskaita buvo paskelbta 12 valandos ir 46 minutes, ne 05:00 UTC
Prognozė galioja nuo 31 metu 06 UTC su 01 metu 12 UTC
Vėjas 12 kt iš Vakarų
Matomumas: 5000 m
migla
Tapsmas
nuo 31 metu 20 UTC su 31 metu 22 UTC
Vėjas kt iš Šiaurės
Matomumas: 3200 m
migla
Tapsmas
nuo 01 metu 02 UTC su 01 metu 04 UTC
Vėjas 6 kt iš Šiaurės Rytų
Matomumas: 3500 m
migla
Tapsmas
nuo 01 metu 07 UTC su 01 metu 09 UTC
Vėjas 10 kt iš Vakarų/Šiaurės Vakarų
Matomumas: 5000 m
migla

TAF: VGEG 310500Z 3106/0112 28012KT 5000 HZ NSC BECMG 3120/3122 00000KT 3200 HZ NSC BECMG 0102/0104 05006KT 3500 HZ NSC BECMG 0107/0109 30010KT 5000 HZ NSC

Orai ataskaitas ir orų prognozės (METAR, TAF).

turimą stotys yra geltonos ir raudonos taškus žemėlapyje.

Perkelti pele per norėdami pamatyti stoties vardą.

Tada spustelėkite, norėdami matyti oro stebėjimo ir prognozės.

Norėdami pakeisti žemėlapį: spustelėkite ant žalios mygtukų su juodo kryžiaus žemyn,; žalią mygtuką su brūkšneliu, jei norite nutolinti; arba žalių rodyklių gretimoms žemėlapius.


METAR-TAF: